• Join FlightAware (Why Join?)
  • Login
  • US Flag 
01:47AM EDT


 

Airport Tracker/Info


-or-


 

Live Flight TrackerFlight Track Log ✈ N829BW ✈ 31-Oct-2013 ✈ KEWB - KEWB

Flight Track Log - Related Links

Times and Time Zones

All times are in EDT time to prevent confusion due to time zone crossing. See the N829BW flight status page for this flight to view local times or setup timezone preferences in your user account.

Time Position Orientation Groundspeed Altitude Reporting Facility
EDT Latitude Longitude Course Direction KTS MPH feet Rate Location/Type
08:40AM 41.6681 -70.9453 137° Southeast 63 72 500  Level Boston Center
08:42AM 41.6472 -70.9067 126° Southeast 69 79 1,700 660 Climbing Boston Center
08:43AM 41.6328 -70.8903 140° Southeast 70 81 2,400 540 Climbing Boston Center
08:44AM 41.6200 -70.8694 129° Southeast 72 83 2,900 300 Climbing Boston Center
08:45AM 41.6033 -70.8436 131° Southeast 90 104 3,100  Climbing Boston Center
08:46AM 41.6766 -70.9578 137° Southeast  Level Estimated
08:46AM 41.5808 -70.8167 138° Southeast 105 121 3,000  Level Boston Center
08:47AM 41.5572 -70.7956 146° Southeast 104 120 2,900  Descending Boston Center
08:48AM 41.5367 -70.7750 143° Southeast 95 109 3,000 60 Climbing Boston Center
08:49AM 41.5122 -70.7478 140° Southeast 103 119 3,100  Climbing Boston Center
08:50AM 41.4900 -70.7242 141° Southeast 101 116 3,100 -60 Level Boston Center
08:51AM 41.4681 -70.7011 142° Southeast 102 117 3,000 -60 Descending Boston Center
08:52AM 41.4453 -70.6769 142° Southeast 105 121 3,000  Level Boston Center
08:53AM 41.4222 -70.6489 138° Southeast 105 121 3,000  Level Boston Center
08:54AM 41.4025 -70.6208 133° Southeast 104 120 3,000  Level Boston Center
08:55AM 41.4150 -70.5811 67° East 126 145 3,000  Level Boston Center
08:56AM 41.4394 -70.5447 48° Northeast 131 151 3,000  Level Boston Center
08:57AM 41.4603 -70.5067 54° Northeast 128 147 3,000  Level Boston Center
08:58AM 41.4642 -70.4644 83° East 122 140 3,000 -120 Level Boston Center
08:59AM 41.4817 -70.4444 41° Northeast 124 143 2,800 -240 Descending Boston Center
09:00AM 41.4831 -70.4792 273° West 107 123 2,600 -300 Descending Boston Center
09:01AM 41.4708 -70.5028 235° Southwest 88 101 2,200 -540 Descending Boston Center
09:02AM 41.4544 -70.5294 231° Southwest 82 94 1,500 -600 Descending Boston Center
09:03AM 41.4411 -70.5508 230° Southwest 84 97 1,000 -480 Descending Boston Center
09:04AM 41.4250 -70.5703 222° Southwest 82 94 600 -300 Descending Boston Center
09:05AM 41.4114 -70.5925 231° Southwest 79 91 500 -120 Descending Boston Center
09:06AM 41.3942 -70.6181 228° Southwest 78 90 400 240 Descending Boston Center
09:07AM 41.3792 -70.6328 216° Southwest 69 79 1,000 540 Climbing Boston Center
09:08AM 41.3725 -70.6556 249° West 79 91 1,600 480 Climbing Boston Center
09:09AM 41.3972 -70.6717 334° Northwest 98 113 2,000 240 Climbing Boston Center
09:10AM 41.4267 -70.6886 337° Northwest 113 130 2,100  Climbing Boston Center
09:11AM 41.4553 -70.7047 337° Northwest 113 130 2,000 -60 Descending Boston Center
09:12AM 41.4856 -70.7186 341° North 107 123 2,000  Level Boston Center
09:13AM 41.5094 -70.7364 331° Northwest 101 116 2,100 60 Climbing Boston Center
09:14AM 41.5344 -70.7506 337° Northwest 104 120 2,200  Climbing Boston Center
09:15AM 41.5508 -70.7117 61° Northeast 116 133 2,100 -60 Descending Boston Center
09:16AM 41.5628 -70.6711 69° East 120 138 2,100 -60 Level Boston Center
09:17AM 41.5636 -70.6286 88° East 115 132 2,000  Descending Boston Center
09:18AM 41.5583 -70.5906 100° East 106 122 2,100  Climbing Boston Center
09:19AM 41.5506 -70.5511 105° East 111 128 2,000  Descending Boston Center
09:20AM 41.5381 -70.5083 111° Southeast 104 120 2,100  Climbing Boston Center
09:21AM 41.5244 -70.4756 119° Southeast 105 121 2,100  Level Boston Center
09:22AM 41.5042 -70.4903 209° Southwest 93 107 2,100 -180 Level Boston Center
09:23AM 41.4856 -70.5108 220° Southwest 89 102 1,800 -300 Descending Boston Center
09:24AM 41.4664 -70.5350 223° Southwest 91 105 1,500 -240 Descending Boston Center
09:25AM 41.4464 -70.5519 212° Southwest 85 98 1,400 -300 Descending Boston Center
09:26AM 41.4308 -70.5706 222° Southwest 73 84 900 -420 Descending Boston Center
09:28AM 41.4192 -70.5869 226° Southwest 71 82 600 -360 Descending Boston Center
09:29AM 41.4028 -70.6047 219° Southwest 73 84 200  Descending Boston Center
09:30AM 41.3864 -70.6228 220° Southwest 74 85 700 600 Climbing Boston Center
09:31AM 41.3703 -70.6469 228° Southwest 74 85 1,500 600 Climbing Boston Center
09:32AM 41.3744 -70.6756 281° West 78 90 2,000 240 Climbing Boston Center
09:33AM 41.3747 -70.7117 271° West 95 109 2,000  Level Boston Center
09:34AM 41.3939 -70.7333 320° Northwest 112 129 2,100 60 Climbing Boston Center
09:34AM 41.3953 -70.7339 343° North 119 137 2,100 -120 Level Boston Center
09:34AM 41.4078 -70.7583 304° West 104 120 2,000 -120 Descending Boston Center
09:35AM 41.4108 -70.7625 314° West 102 117 2,000  Level Boston Center
09:36AM 41.4292 -70.7906 311° West 93 107 2,000  Level Boston Center
09:36AM 41.4464 -70.8122 317° Northwest 100 115 2,000 60 Level Boston Center
09:37AM 41.4483 -70.8183 293° West 101 116 2,100 60 Climbing Boston Center
09:37AM 41.4603 -70.8400 306° West 91 105 2,100  Level Boston Center
09:38AM 41.4625 -70.8458 297° West 92 106 2,100  Level Boston Center
09:39AM 41.4864 -70.8450 North 119 137 2,100  Level Boston Center
09:40AM 41.5097 -70.8097 49° Northeast 118 136 2,100 -60 Level Boston Center
09:41AM 41.5317 -70.7847 40° Northeast 108 124 2,000 -120 Descending Boston Center
09:41AM 41.5319 -70.7872 278° West 113 130 2,000  Level Boston Center
09:42AM 41.5583 -70.7597 38° Northeast 109 125 2,000  Level Boston Center
09:42AM 41.5569 -70.7597 180° South 118 136 2,000 -180 Level Boston Center
09:43AM 41.5681 -70.7861 299° West 118 136 1,800 -180 Descending Boston Center
09:44AM 41.5800 -70.8142 300° West 88 101 1,700 -60 Descending Boston Center
09:45AM 41.6019 -70.8328 328° Northwest 93 107 1,700  Level Boston Center
09:46AM 41.6183 -70.8586 310° West 95 109 1,800 -120 Climbing Boston Center
09:47AM 41.6333 -70.8878 305° West 87 100 1,500 -360 Descending Boston Center
09:48AM 41.6492 -70.9097 314° West 91 105 1,100 -420 Descending Boston Center
09:48AM 41.6500 -70.9131 288° West 91 105 1,100 -240 Level Boston Center
09:49AM 41.6656 -70.9358 312° West 89 102 900 -240 Descending Boston Center
09:49AM 41.6672 -70.9378 319° Northwest 91 105 900 -120 Level Boston Center
09:50AM 41.6878 -70.9567 326° Northwest 90 104 800 -300 Descending Boston Center
09:51AM 41.6864 -70.9719 263° West 77 89 400 -420 Descending Boston Center
09:51AM 41.6856 -70.9728 217° Southwest 73 84 400  Level Boston Center
09:53AM 41.6766 -70.9578 180° South  Level Estimated